sensor_id;sensor_type;location;lat;lon;timestamp;temperature;humidity
38090;DHT22;23904;52.322;10.232;2022-11-20T00:01:42;-1.50;99.90
38090;DHT22;23904;52.322;10.232;2022-11-20T00:04:08;-1.50;99.90
38090;DHT22;23904;52.322;10.232;2022-11-20T00:06:34;-1.60;99.90
38090;DHT22;23904;52.322;10.232;2022-11-20T00:09:00;-1.50;99.90
38090;DHT22;23904;52.322;10.232;2022-11-20T00:11:27;-1.60;99.90
38090;DHT22;23904;52.322;10.232;2022-11-20T00:13:56;-1.60;99.90
38090;DHT22;23904;52.322;10.232;2022-11-20T00:16:24;-1.60;99.90
38090;DHT22;23904;52.322;10.232;2022-11-20T00:18:51;-1.50;99.90
38090;DHT22;23904;52.322;10.232;2022-11-20T00:23:44;-1.40;99.90
38090;DHT22;23904;52.322;10.232;2022-11-20T00:26:12;-1.40;99.90
38090;DHT22;23904;52.322;10.232;2022-11-20T00:28:39;-1.50;99.90
38090;DHT22;23904;52.322;10.232;2022-11-20T00:31:06;-1.60;99.90
38090;DHT22;23904;52.322;10.232;2022-11-20T00:33:34;-1.60;99.90
38090;DHT22;23904;52.322;10.232;2022-11-20T00:36:00;-1.60;99.90
38090;DHT22;23904;52.322;10.232;2022-11-20T00:38:27;-1.70;99.90
38090;DHT22;23904;52.322;10.232;2022-11-20T00:40:59;-1.70;99.90
38090;DHT22;23904;52.322;10.232;2022-11-20T00:43:26;-1.60;99.90
38090;DHT22;23904;52.322;10.232;2022-11-20T00:45:59;-1.70;99.90
38090;DHT22;23904;52.322;10.232;2022-11-20T00:48:25;-1.60;99.90
38090;DHT22;23904;52.322;10.232;2022-11-20T00:50:51;-1.50;99.90
38090;DHT22;23904;52.322;10.232;2022-11-20T00:53:17;-1.50;99.90
38090;DHT22;23904;52.322;10.232;2022-11-20T00:55:42;-1.50;99.90
38090;DHT22;23904;52.322;10.232;2022-11-20T00:58:08;-1.50;99.90
38090;DHT22;23904;52.322;10.232;2022-11-20T01:00:34;-1.60;99.90
38090;DHT22;23904;52.322;10.232;2022-11-20T01:02:59;-1.70;99.90
38090;DHT22;23904;52.322;10.232;2022-11-20T01:05:25;-1.80;99.90
38090;DHT22;23904;52.322;10.232;2022-11-20T01:07:52;-1.80;99.90
38090;DHT22;23904;52.322;10.232;2022-11-20T01:10:17;-1.80;99.90
38090;DHT22;23904;52.322;10.232;2022-11-20T01:12:43;-1.90;99.90
38090;DHT22;23904;52.322;10.232;2022-11-20T01:15:08;-1.80;99.90
38090;DHT22;23904;52.322;10.232;2022-11-20T01:17:34;-1.80;99.90
38090;DHT22;23904;52.322;10.232;2022-11-20T01:20:00;-1.80;99.90
38090;DHT22;23904;52.322;10.232;2022-11-20T01:22:25;-1.80;99.90
38090;DHT22;23904;52.322;10.232;2022-11-20T01:24:51;-1.80;99.90
38090;DHT22;23904;52.322;10.232;2022-11-20T01:27:16;-1.70;99.90
38090;DHT22;23904;52.322;10.232;2022-11-20T01:29:42;-1.80;99.90
38090;DHT22;23904;52.322;10.232;2022-11-20T01:32:08;-1.70;99.90
38090;DHT22;23904;52.322;10.232;2022-11-20T01:34:33;-1.80;99.90
38090;DHT22;23904;52.322;10.232;2022-11-20T01:36:59;-1.80;99.90
38090;DHT22;23904;52.322;10.232;2022-11-20T01:39:25;-1.70;99.90
38090;DHT22;23904;52.322;10.232;2022-11-20T01:41:51;-1.60;99.90
38090;DHT22;23904;52.322;10.232;2022-11-20T01:44:50;-1.60;99.90
38090;DHT22;23904;52.322;10.232;2022-11-20T01:47:33;-1.60;99.90
38090;DHT22;23904;52.322;10.232;2022-11-20T01:50:22;-1.70;99.90
38090;DHT22;23904;52.322;10.232;2022-11-20T01:52:54;-1.60;99.90
38090;DHT22;23904;52.322;10.232;2022-11-20T01:55:30;-1.50;99.90
38090;DHT22;23904;52.322;10.232;2022-11-20T01:57:57;-1.40;99.90
38090;DHT22;23904;52.322;10.232;2022-11-20T02:00:24;-1.30;99.90
38090;DHT22;23904;52.322;10.232;2022-11-20T02:03:00;-1.20;99.90
38090;DHT22;23904;52.322;10.232;2022-11-20T02:05:36;-1.20;99.90
38090;DHT22;23904;52.322;10.232;2022-11-20T02:08:04;-1.20;99.90
38090;DHT22;23904;52.322;10.232;2022-11-20T02:10:31;-1.10;99.90
38090;DHT22;23904;52.322;10.232;2022-11-20T02:12:57;-1.10;99.90
38090;DHT22;23904;52.322;10.232;2022-11-20T02:15:42;-1.20;99.90
38090;DHT22;23904;52.322;10.232;2022-11-20T02:18:07;-1.20;99.90
38090;DHT22;23904;52.322;10.232;2022-11-20T02:20:34;-1.20;99.90
38090;DHT22;23904;52.322;10.232;2022-11-20T02:23:13;-1.20;99.90
38090;DHT22;23904;52.322;10.232;2022-11-20T02:25:57;-1.30;99.90
38090;DHT22;23904;52.322;10.232;2022-11-20T02:28:23;-1.30;99.90
38090;DHT22;23904;52.322;10.232;2022-11-20T02:30:49;-1.30;99.90
38090;DHT22;23904;52.322;10.232;2022-11-20T02:33:15;-1.30;99.90
38090;DHT22;23904;52.322;10.232;2022-11-20T02:35:42;-1.40;99.90
38090;DHT22;23904;52.322;10.232;2022-11-20T02:38:09;-1.40;99.90
38090;DHT22;23904;52.322;10.232;2022-11-20T02:40:34;-1.30;99.90
38090;DHT22;23904;52.322;10.232;2022-11-20T02:43:00;-1.30;99.90
38090;DHT22;23904;52.322;10.232;2022-11-20T02:45:26;-1.30;99.90
38090;DHT22;23904;52.322;10.232;2022-11-20T02:47:51;-1.20;99.90
38090;DHT22;23904;52.322;10.232;2022-11-20T02:50:17;-1.20;99.90
38090;DHT22;23904;52.322;10.232;2022-11-20T02:52:43;-1.20;99.90
38090;DHT22;23904;52.322;10.232;2022-11-20T02:55:09;-1.20;99.90
38090;DHT22;23904;52.322;10.232;2022-11-20T02:57:34;-1.30;99.90
38090;DHT22;23904;52.322;10.232;2022-11-20T03:00:00;-1.30;99.90
38090;DHT22;23904;52.322;10.232;2022-11-20T03:02:29;-1.30;99.90
38090;DHT22;23904;52.322;10.232;2022-11-20T03:04:55;-1.30;99.90
38090;DHT22;23904;52.322;10.232;2022-11-20T03:07:20;-1.20;99.90
38090;DHT22;23904;52.322;10.232;2022-11-20T03:09:46;-1.10;99.90
38090;DHT22;23904;52.322;10.232;2022-11-20T03:12:11;-1.10;99.90
38090;DHT22;23904;52.322;10.232;2022-11-20T03:14:37;-1.00;99.90
38090;DHT22;23904;52.322;10.232;2022-11-20T03:17:02;-1.00;99.90
38090;DHT22;23904;52.322;10.232;2022-11-20T03:19:28;-1.10;99.90
38090;DHT22;23904;52.322;10.232;2022-11-20T03:21:54;-1.10;99.90
38090;DHT22;23904;52.322;10.232;2022-11-20T03:24:19;-1.10;99.90
38090;DHT22;23904;52.322;10.232;2022-11-20T03:26:45;-1.00;99.90
38090;DHT22;23904;52.322;10.232;2022-11-20T03:29:10;-1.00;99.90
38090;DHT22;23904;52.322;10.232;2022-11-20T03:31:37;-1.00;99.90
38090;DHT22;23904;52.322;10.232;2022-11-20T03:34:05;-1.10;99.90
38090;DHT22;23904;52.322;10.232;2022-11-20T03:36:32;-1.20;99.90
38090;DHT22;23904;52.322;10.232;2022-11-20T03:38:58;-1.10;99.90
38090;DHT22;23904;52.322;10.232;2022-11-20T03:41:28;-1.10;99.90
38090;DHT22;23904;52.322;10.232;2022-11-20T03:43:57;-1.10;99.90
38090;DHT22;23904;52.322;10.232;2022-11-20T03:46:24;-1.10;99.90
38090;DHT22;23904;52.322;10.232;2022-11-20T03:48:51;-1.10;99.90
38090;DHT22;23904;52.322;10.232;2022-11-20T03:53:44;-1.10;99.90
38090;DHT22;23904;52.322;10.232;2022-11-20T03:56:11;-1.00;99.90
38090;DHT22;23904;52.322;10.232;2022-11-20T03:58:38;-1.00;99.90
38090;DHT22;23904;52.322;10.232;2022-11-20T04:03:37;-0.90;99.90
38090;DHT22;23904;52.322;10.232;2022-11-20T04:06:26;-1.00;99.90
38090;DHT22;23904;52.322;10.232;2022-11-20T04:08:56;-1.10;99.90
38090;DHT22;23904;52.322;10.232;2022-11-20T04:11:27;-1.10;99.90
38090;DHT22;23904;52.322;10.232;2022-11-20T04:13:55;-1.10;99.90
38090;DHT22;23904;52.322;10.232;2022-11-20T04:16:22;-1.20;99.90
38090;DHT22;23904;52.322;10.232;2022-11-20T04:18:52;-1.10;99.90
38090;DHT22;23904;52.322;10.232;2022-11-20T04:21:22;-1.10;99.90
38090;DHT22;23904;52.322;10.232;2022-11-20T04:23:50;-1.10;99.90
38090;DHT22;23904;52.322;10.232;2022-11-20T04:26:16;-1.10;99.90
38090;DHT22;23904;52.322;10.232;2022-11-20T04:28:42;-1.20;99.90
38090;DHT22;23904;52.322;10.232;2022-11-20T04:31:08;-1.20;99.90
38090;DHT22;23904;52.322;10.232;2022-11-20T04:33:38;-1.40;99.90
38090;DHT22;23904;52.322;10.232;2022-11-20T04:36:05;-1.30;99.90
38090;DHT22;23904;52.322;10.232;2022-11-20T04:38:32;-1.30;99.90
38090;DHT22;23904;52.322;10.232;2022-11-20T04:41:01;-1.30;99.90
38090;DHT22;23904;52.322;10.232;2022-11-20T04:43:31;-1.20;99.90
38090;DHT22;23904;52.322;10.232;2022-11-20T04:45:58;-1.20;99.90
38090;DHT22;23904;52.322;10.232;2022-11-20T04:48:24;-1.10;99.90
38090;DHT22;23904;52.322;10.232;2022-11-20T04:50:50;-1.10;99.90
38090;DHT22;23904;52.322;10.232;2022-11-20T04:53:16;-1.10;99.90
38090;DHT22;23904;52.322;10.232;2022-11-20T04:55:42;-1.10;99.90
38090;DHT22;23904;52.322;10.232;2022-11-20T04:58:08;-1.20;99.90
38090;DHT22;23904;52.322;10.232;2022-11-20T05:00:33;-1.20;99.90
38090;DHT22;23904;52.322;10.232;2022-11-20T05:02:59;-1.20;99.90
38090;DHT22;23904;52.322;10.232;2022-11-20T05:05:24;-1.10;99.90
38090;DHT22;23904;52.322;10.232;2022-11-20T05:07:50;-1.20;99.90
38090;DHT22;23904;52.322;10.232;2022-11-20T05:10:16;-1.20;99.90
38090;DHT22;23904;52.322;10.232;2022-11-20T05:12:41;-1.20;99.90
38090;DHT22;23904;52.322;10.232;2022-11-20T05:15:07;-1.20;99.90
38090;DHT22;23904;52.322;10.232;2022-11-20T05:17:33;-1.20;99.90
38090;DHT22;23904;52.322;10.232;2022-11-20T05:19:58;-1.20;99.90
38090;DHT22;23904;52.322;10.232;2022-11-20T05:22:24;-1.30;99.90
38090;DHT22;23904;52.322;10.232;2022-11-20T05:24:50;-1.20;99.90
38090;DHT22;23904;52.322;10.232;2022-11-20T05:27:15;-1.20;99.90
38090;DHT22;23904;52.322;10.232;2022-11-20T05:29:41;-1.20;99.90
38090;DHT22;23904;52.322;10.232;2022-11-20T05:32:06;-1.20;99.90
38090;DHT22;23904;52.322;10.232;2022-11-20T05:34:35;-1.10;99.90
38090;DHT22;23904;52.322;10.232;2022-11-20T05:37:01;-1.10;99.90
38090;DHT22;23904;52.322;10.232;2022-11-20T05:39:26;-1.10;99.90
38090;DHT22;23904;52.322;10.232;2022-11-20T05:41:52;-1.30;99.90
38090;DHT22;23904;52.322;10.232;2022-11-20T05:44:37;-1.30;99.90
38090;DHT22;23904;52.322;10.232;2022-11-20T05:47:03;-1.30;99.90
38090;DHT22;23904;52.322;10.232;2022-11-20T05:49:29;-1.20;99.90
38090;DHT22;23904;52.322;10.232;2022-11-20T05:51:54;-1.10;99.90
38090;DHT22;23904;52.322;10.232;2022-11-20T05:54:20;-1.10;99.90
38090;DHT22;23904;52.322;10.232;2022-11-20T05:56:45;-1.10;99.90
38090;DHT22;23904;52.322;10.232;2022-11-20T05:59:11;-1.00;99.90
38090;DHT22;23904;52.322;10.232;2022-11-20T06:01:36;-1.00;99.90
38090;DHT22;23904;52.322;10.232;2022-11-20T06:04:02;-1.00;99.90
38090;DHT22;23904;52.322;10.232;2022-11-20T06:06:27;-1.00;99.90
38090;DHT22;23904;52.322;10.232;2022-11-20T06:08:54;-1.00;99.90
38090;DHT22;23904;52.322;10.232;2022-11-20T06:11:20;-1.10;99.90
38090;DHT22;23904;52.322;10.232;2022-11-20T06:13:46;-1.10;99.90
38090;DHT22;23904;52.322;10.232;2022-11-20T06:16:13;-1.00;99.90
38090;DHT22;23904;52.322;10.232;2022-11-20T06:18:39;-1.00;99.90
38090;DHT22;23904;52.322;10.232;2022-11-20T06:23:38;-0.90;99.90
38090;DHT22;23904;52.322;10.232;2022-11-20T06:26:04;-1.00;99.90
38090;DHT22;23904;52.322;10.232;2022-11-20T06:28:34;-0.90;99.90
38090;DHT22;23904;52.322;10.232;2022-11-20T06:31:00;-1.00;99.90
38090;DHT22;23904;52.322;10.232;2022-11-20T06:33:25;-1.10;99.90
38090;DHT22;23904;52.322;10.232;2022-11-20T06:35:51;-1.10;99.90
38090;DHT22;23904;52.322;10.232;2022-11-20T06:38:17;-1.00;99.90
38090;DHT22;23904;52.322;10.232;2022-11-20T06:40:42;-1.00;99.90
38090;DHT22;23904;52.322;10.232;2022-11-20T06:43:09;-1.00;99.90
38090;DHT22;23904;52.322;10.232;2022-11-20T06:45:35;-1.00;99.90
38090;DHT22;23904;52.322;10.232;2022-11-20T06:48:01;-0.90;99.90
38090;DHT22;23904;52.322;10.232;2022-11-20T06:50:27;-0.80;99.90
38090;DHT22;23904;52.322;10.232;2022-11-20T06:52:53;-0.90;99.90
38090;DHT22;23904;52.322;10.232;2022-11-20T06:55:24;-0.90;99.90
38090;DHT22;23904;52.322;10.232;2022-11-20T06:57:50;-0.90;99.90
38090;DHT22;23904;52.322;10.232;2022-11-20T07:00:15;-0.80;99.90
38090;DHT22;23904;52.322;10.232;2022-11-20T07:02:41;-0.80;99.90
38090;DHT22;23904;52.322;10.232;2022-11-20T07:05:07;-1.00;99.90
38090;DHT22;23904;52.322;10.232;2022-11-20T07:07:32;-1.00;99.90
38090;DHT22;23904;52.322;10.232;2022-11-20T07:09:58;-0.90;99.90
38090;DHT22;23904;52.322;10.232;2022-11-20T07:12:23;-1.10;99.90
38090;DHT22;23904;52.322;10.232;2022-11-20T07:14:49;-1.00;99.90
38090;DHT22;23904;52.322;10.232;2022-11-20T07:17:14;-0.90;99.90
38090;DHT22;23904;52.322;10.232;2022-11-20T07:19:40;-0.80;99.90
38090;DHT22;23904;52.322;10.232;2022-11-20T07:22:06;-0.80;99.90
38090;DHT22;23904;52.322;10.232;2022-11-20T07:24:31;-0.80;99.90
38090;DHT22;23904;52.322;10.232;2022-11-20T07:26:57;-0.70;99.90
38090;DHT22;23904;52.322;10.232;2022-11-20T07:29:22;-0.70;99.90
38090;DHT22;23904;52.322;10.232;2022-11-20T07:31:48;-0.70;99.90
38090;DHT22;23904;52.322;10.232;2022-11-20T07:34:13;-0.70;99.90
38090;DHT22;23904;52.322;10.232;2022-11-20T07:36:39;-0.70;99.90
38090;DHT22;23904;52.322;10.232;2022-11-20T07:39:04;-0.60;99.90
38090;DHT22;23904;52.322;10.232;2022-11-20T07:41:30;-0.60;99.90
38090;DHT22;23904;52.322;10.232;2022-11-20T07:43:56;-0.60;99.90
38090;DHT22;23904;52.322;10.232;2022-11-20T07:46:21;-0.50;99.90
38090;DHT22;23904;52.322;10.232;2022-11-20T07:48:47;-0.60;99.90
38090;DHT22;23904;52.322;10.232;2022-11-20T07:51:13;-0.60;99.90
38090;DHT22;23904;52.322;10.232;2022-11-20T07:53:38;-0.50;99.90
38090;DHT22;23904;52.322;10.232;2022-11-20T07:56:04;-0.60;99.90
38090;DHT22;23904;52.322;10.232;2022-11-20T07:58:30;-0.60;99.90
38090;DHT22;23904;52.322;10.232;2022-11-20T08:01:01;-0.50;99.90
38090;DHT22;23904;52.322;10.232;2022-11-20T08:03:29;-0.50;99.90
38090;DHT22;23904;52.322;10.232;2022-11-20T08:05:54;-0.60;99.90
38090;DHT22;23904;52.322;10.232;2022-11-20T08:08:24;-0.70;99.90
38090;DHT22;23904;52.322;10.232;2022-11-20T08:10:49;-0.60;99.90
38090;DHT22;23904;52.322;10.232;2022-11-20T08:13:15;-0.60;99.90
38090;DHT22;23904;52.322;10.232;2022-11-20T08:15:59;-0.60;99.90
38090;DHT22;23904;52.322;10.232;2022-11-20T08:18:24;-0.60;99.90
38090;DHT22;23904;52.322;10.232;2022-11-20T08:20:50;-0.50;99.90
38090;DHT22;23904;52.322;10.232;2022-11-20T08:23:15;-0.50;99.90
38090;DHT22;23904;52.322;10.232;2022-11-20T08:25:41;-0.50;99.90
38090;DHT22;23904;52.322;10.232;2022-11-20T08:28:08;-0.50;99.90
38090;DHT22;23904;52.322;10.232;2022-11-20T08:30:34;-0.40;99.90
38090;DHT22;23904;52.322;10.232;2022-11-20T08:33:02;-0.40;99.90
38090;DHT22;23904;52.322;10.232;2022-11-20T08:35:32;-0.40;99.90
38090;DHT22;23904;52.322;10.232;2022-11-20T08:37:59;-0.40;99.90
38090;DHT22;23904;52.322;10.232;2022-11-20T08:40:25;-0.50;99.90
38090;DHT22;23904;52.322;10.232;2022-11-20T08:42:51;-0.40;99.90
38090;DHT22;23904;52.322;10.232;2022-11-20T08:45:17;-0.50;99.90
38090;DHT22;23904;52.322;10.232;2022-11-20T08:47:43;-0.60;99.90
38090;DHT22;23904;52.322;10.232;2022-11-20T08:50:10;-0.50;99.90
38090;DHT22;23904;52.322;10.232;2022-11-20T08:52:37;-0.40;99.90
38090;DHT22;23904;52.322;10.232;2022-11-20T08:55:03;-0.40;99.90
38090;DHT22;23904;52.322;10.232;2022-11-20T08:57:33;-0.40;99.90
38090;DHT22;23904;52.322;10.232;2022-11-20T08:59:59;-0.30;99.90
38090;DHT22;23904;52.322;10.232;2022-11-20T09:02:25;-0.30;99.90
38090;DHT22;23904;52.322;10.232;2022-11-20T09:04:51;-0.20;99.90
38090;DHT22;23904;52.322;10.232;2022-11-20T09:07:16;-0.20;99.90
38090;DHT22;23904;52.322;10.232;2022-11-20T09:09:42;0.00;99.90
38090;DHT22;23904;52.322;10.232;2022-11-20T09:12:07;0.20;99.90
38090;DHT22;23904;52.322;10.232;2022-11-20T09:14:33;0.10;99.90
38090;DHT22;23904;52.322;10.232;2022-11-20T09:16:58;0.10;99.90
38090;DHT22;23904;52.322;10.232;2022-11-20T09:19:24;0.10;99.90
38090;DHT22;23904;52.322;10.232;2022-11-20T09:21:50;0.10;99.90
38090;DHT22;23904;52.322;10.232;2022-11-20T09:24:16;0.30;99.90
38090;DHT22;23904;52.322;10.232;2022-11-20T09:26:42;0.20;99.90
38090;DHT22;23904;52.322;10.232;2022-11-20T09:29:07;0.30;99.90
38090;DHT22;23904;52.322;10.232;2022-11-20T09:31:33;0.30;99.90
38090;DHT22;23904;52.322;10.232;2022-11-20T09:34:00;0.40;99.90
38090;DHT22;23904;52.322;10.232;2022-11-20T09:36:26;0.50;99.90
38090;DHT22;23904;52.322;10.232;2022-11-20T09:38:51;0.40;99.90
38090;DHT22;23904;52.322;10.232;2022-11-20T09:49:37;0.60;99.90
38090;DHT22;23904;52.322;10.232;2022-11-20T09:52:30;0.60;99.90
38090;DHT22;23904;52.322;10.232;2022-11-20T09:55:03;0.70;99.90
38090;DHT22;23904;52.322;10.232;2022-11-20T09:57:32;0.80;99.90
38090;DHT22;23904;52.322;10.232;2022-11-20T10:00:01;0.80;99.90
38090;DHT22;23904;52.322;10.232;2022-11-20T10:02:37;1.00;99.90
38090;DHT22;23904;52.322;10.232;2022-11-20T10:05:30;2.20;99.90
38090;DHT22;23904;52.322;10.232;2022-11-20T10:10:46;3.30;99.90
38090;DHT22;23904;52.322;10.232;2022-11-20T10:15:53;3.50;99.90
38090;DHT22;23904;52.322;10.232;2022-11-20T10:22:19;3.20;99.90
38090;DHT22;23904;52.322;10.232;2022-11-20T10:29:46;2.00;99.90
38090;DHT22;23904;52.322;10.232;2022-11-20T10:32:16;2.00;99.90
38090;DHT22;23904;52.322;10.232;2022-11-20T10:34:47;1.80;99.90
38090;DHT22;23904;52.322;10.232;2022-11-20T10:37:25;1.80;99.90
38090;DHT22;23904;52.322;10.232;2022-11-20T10:42:36;1.90;99.90
38090;DHT22;23904;52.322;10.232;2022-11-20T10:47:49;2.20;99.90
38090;DHT22;23904;52.322;10.232;2022-11-20T10:50:18;2.10;99.90
38090;DHT22;23904;52.322;10.232;2022-11-20T11:00:37;1.70;99.90
38090;DHT22;23904;52.322;10.232;2022-11-20T11:03:07;1.80;99.90
38090;DHT22;23904;52.322;10.232;2022-11-20T11:05:48;2.30;99.90
38090;DHT22;23904;52.322;10.232;2022-11-20T11:08:17;2.40;99.90
38090;DHT22;23904;52.322;10.232;2022-11-20T11:10:46;2.20;99.90
38090;DHT22;23904;52.322;10.232;2022-11-20T11:13:22;2.10;99.90
38090;DHT22;23904;52.322;10.232;2022-11-20T11:15:53;2.30;99.90
38090;DHT22;23904;52.322;10.232;2022-11-20T11:20:55;2.80;99.90
38090;DHT22;23904;52.322;10.232;2022-11-20T11:23:34;3.30;99.90
38090;DHT22;23904;52.322;10.232;2022-11-20T11:26:05;3.80;99.90
38090;DHT22;23904;52.322;10.232;2022-11-20T11:28:42;4.00;99.90
38090;DHT22;23904;52.322;10.232;2022-11-20T11:31:22;3.90;99.90
38090;DHT22;23904;52.322;10.232;2022-11-20T11:33:49;3.50;99.90
38090;DHT22;23904;52.322;10.232;2022-11-20T11:36:16;3.20;99.90
38090;DHT22;23904;52.322;10.232;2022-11-20T11:38:44;3.00;99.90
38090;DHT22;23904;52.322;10.232;2022-11-20T11:41:13;2.70;99.90
38090;DHT22;23904;52.322;10.232;2022-11-20T11:43:49;2.40;99.90
38090;DHT22;23904;52.322;10.232;2022-11-20T11:46:37;2.40;99.90
38090;DHT22;23904;52.322;10.232;2022-11-20T11:51:41;2.60;99.90
38090;DHT22;23904;52.322;10.232;2022-11-20T11:54:24;3.40;99.90
38090;DHT22;23904;52.322;10.232;2022-11-20T11:56:52;3.60;99.90
38090;DHT22;23904;52.322;10.232;2022-11-20T11:59:25;3.50;99.90
38090;DHT22;23904;52.322;10.232;2022-11-20T12:01:54;3.20;99.90
38090;DHT22;23904;52.322;10.232;2022-11-20T12:07:22;2.80;99.90
38090;DHT22;23904;52.322;10.232;2022-11-20T12:09:58;2.60;99.90
38090;DHT22;23904;52.322;10.232;2022-11-20T12:12:31;2.50;99.90
38090;DHT22;23904;52.322;10.232;2022-11-20T12:15:02;2.50;99.90
38090;DHT22;23904;52.322;10.232;2022-11-20T12:17:30;2.40;99.90
38090;DHT22;23904;52.322;10.232;2022-11-20T12:19:56;2.10;99.90
38090;DHT22;23904;52.322;10.232;2022-11-20T12:25:17;2.00;99.90
38090;DHT22;23904;52.322;10.232;2022-11-20T12:30:41;2.10;99.90
38090;DHT22;23904;52.322;10.232;2022-11-20T12:46:08;2.10;99.90
38090;DHT22;23904;52.322;10.232;2022-11-20T12:48:41;2.10;99.90
38090;DHT22;23904;52.322;10.232;2022-11-20T12:51:14;2.20;99.90
38090;DHT22;23904;52.322;10.232;2022-11-20T12:54:35;2.10;99.90
38090;DHT22;23904;52.322;10.232;2022-11-20T12:56:57;2.10;99.90
38090;DHT22;23904;52.322;10.232;2022-11-20T12:59:37;2.00;99.90
38090;DHT22;23904;52.322;10.232;2022-11-20T13:08:39;1.80;99.90
38090;DHT22;23904;52.322;10.232;2022-11-20T13:11:12;1.70;99.90
38090;DHT22;23904;52.322;10.232;2022-11-20T13:13:51;1.60;99.90
38090;DHT22;23904;52.322;10.232;2022-11-20T13:19:13;1.70;99.90
38090;DHT22;23904;52.322;10.232;2022-11-20T13:21:42;1.80;99.90
38090;DHT22;23904;52.322;10.232;2022-11-20T13:24:21;1.70;99.90
38090;DHT22;23904;52.322;10.232;2022-11-20T13:29:34;1.70;99.90
38090;DHT22;23904;52.322;10.232;2022-11-20T13:32:05;1.60;99.90
38090;DHT22;23904;52.322;10.232;2022-11-20T13:34:37;1.60;99.90
38090;DHT22;23904;52.322;10.232;2022-11-20T13:37:03;1.50;99.90
38090;DHT22;23904;52.322;10.232;2022-11-20T13:39:35;1.50;99.90
38090;DHT22;23904;52.322;10.232;2022-11-20T13:44:39;1.60;99.90
38090;DHT22;23904;52.322;10.232;2022-11-20T13:47:21;1.60;99.90
38090;DHT22;23904;52.322;10.232;2022-11-20T13:49:48;1.60;99.90
38090;DHT22;23904;52.322;10.232;2022-11-20T14:00:52;1.70;99.90
38090;DHT22;23904;52.322;10.232;2022-11-20T14:03:22;1.80;99.90
38090;DHT22;23904;52.322;10.232;2022-11-20T14:05:54;1.80;99.90
38090;DHT22;23904;52.322;10.232;2022-11-20T14:08:27;1.80;99.90
38090;DHT22;23904;52.322;10.232;2022-11-20T14:11:13;1.70;99.90
38090;DHT22;23904;52.322;10.232;2022-11-20T14:14:02;1.70;99.90
38090;DHT22;23904;52.322;10.232;2022-11-20T14:16:33;1.70;99.90
38090;DHT22;23904;52.322;10.232;2022-11-20T14:21:49;1.70;99.90
38090;DHT22;23904;52.322;10.232;2022-11-20T14:24:21;1.60;99.90
38090;DHT22;23904;52.322;10.232;2022-11-20T14:26:49;1.60;99.90
38090;DHT22;23904;52.322;10.232;2022-11-20T14:29:16;1.60;99.90
38090;DHT22;23904;52.322;10.232;2022-11-20T14:31:46;1.50;99.90
38090;DHT22;23904;52.322;10.232;2022-11-20T14:34:14;1.60;99.90
38090;DHT22;23904;52.322;10.232;2022-11-20T14:36:41;1.60;99.90
38090;DHT22;23904;52.322;10.232;2022-11-20T14:39:09;1.60;99.90
38090;DHT22;23904;52.322;10.232;2022-11-20T14:41:36;1.60;99.90
38090;DHT22;23904;52.322;10.232;2022-11-20T14:44:02;1.50;99.90
38090;DHT22;23904;52.322;10.232;2022-11-20T14:46:28;1.50;99.90
38090;DHT22;23904;52.322;10.232;2022-11-20T14:48:56;1.50;99.90
38090;DHT22;23904;52.322;10.232;2022-11-20T14:51:30;1.50;99.90
38090;DHT22;23904;52.322;10.232;2022-11-20T14:56:55;1.60;99.90
38090;DHT22;23904;52.322;10.232;2022-11-20T14:59:26;1.60;99.90
38090;DHT22;23904;52.322;10.232;2022-11-20T15:01:57;1.50;99.90
38090;DHT22;23904;52.322;10.232;2022-11-20T15:04:24;1.50;99.90
38090;DHT22;23904;52.322;10.232;2022-11-20T15:06:51;1.40;99.90
38090;DHT22;23904;52.322;10.232;2022-11-20T15:09:18;1.30;99.90
38090;DHT22;23904;52.322;10.232;2022-11-20T15:11:57;1.30;99.90
38090;DHT22;23904;52.322;10.232;2022-11-20T15:14:25;1.30;99.90
38090;DHT22;23904;52.322;10.232;2022-11-20T15:16:51;1.30;99.90
38090;DHT22;23904;52.322;10.232;2022-11-20T15:19:26;1.30;99.90
38090;DHT22;23904;52.322;10.232;2022-11-20T15:21:52;1.30;99.90
38090;DHT22;23904;52.322;10.232;2022-11-20T15:24:18;1.20;99.90
38090;DHT22;23904;52.322;10.232;2022-11-20T15:26:44;1.20;99.90
38090;DHT22;23904;52.322;10.232;2022-11-20T15:29:10;1.20;99.90
38090;DHT22;23904;52.322;10.232;2022-11-20T15:31:37;1.10;99.90
38090;DHT22;23904;52.322;10.232;2022-11-20T15:34:13;1.20;99.90
38090;DHT22;23904;52.322;10.232;2022-11-20T15:36:40;1.20;99.90
38090;DHT22;23904;52.322;10.232;2022-11-20T15:39:07;1.30;99.90
38090;DHT22;23904;52.322;10.232;2022-11-20T15:41:33;1.40;99.90
38090;DHT22;23904;52.322;10.232;2022-11-20T15:43:59;1.40;99.90
38090;DHT22;23904;52.322;10.232;2022-11-20T15:46:29;1.40;99.90
38090;DHT22;23904;52.322;10.232;2022-11-20T15:48:58;1.40;99.90
38090;DHT22;23904;52.322;10.232;2022-11-20T15:51:29;1.40;99.90
38090;DHT22;23904;52.322;10.232;2022-11-20T15:53:56;1.40;99.90
38090;DHT22;23904;52.322;10.232;2022-11-20T15:56:22;1.50;99.90
38090;DHT22;23904;52.322;10.232;2022-11-20T15:58:48;1.50;99.90
38090;DHT22;23904;52.322;10.232;2022-11-20T16:01:14;1.50;99.90
38090;DHT22;23904;52.322;10.232;2022-11-20T16:03:42;1.50;99.90
38090;DHT22;23904;52.322;10.232;2022-11-20T16:06:07;1.50;99.90
38090;DHT22;23904;52.322;10.232;2022-11-20T16:08:33;1.50;99.90
38090;DHT22;23904;52.322;10.232;2022-11-20T16:11:00;1.50;99.90
38090;DHT22;23904;52.322;10.232;2022-11-20T16:13:26;1.60;99.90
38090;DHT22;23904;52.322;10.232;2022-11-20T16:16:21;1.60;99.90
38090;DHT22;23904;52.322;10.232;2022-11-20T16:18:47;1.50;99.90
38090;DHT22;23904;52.322;10.232;2022-11-20T16:21:12;1.50;99.90
38090;DHT22;23904;52.322;10.232;2022-11-20T16:23:38;1.60;99.90
38090;DHT22;23904;52.322;10.232;2022-11-20T16:26:14;1.50;99.90
38090;DHT22;23904;52.322;10.232;2022-11-20T16:28:42;1.50;99.90
38090;DHT22;23904;52.322;10.232;2022-11-20T16:31:12;1.50;99.90
38090;DHT22;23904;52.322;10.232;2022-11-20T16:33:38;1.50;99.90
38090;DHT22;23904;52.322;10.232;2022-11-20T16:36:08;1.50;99.90
38090;DHT22;23904;52.322;10.232;2022-11-20T16:38:38;1.60;99.90
38090;DHT22;23904;52.322;10.232;2022-11-20T16:41:04;1.60;99.90
38090;DHT22;23904;52.322;10.232;2022-11-20T16:43:30;1.50;99.90
38090;DHT22;23904;52.322;10.232;2022-11-20T16:45:56;1.40;99.90
38090;DHT22;23904;52.322;10.232;2022-11-20T16:48:22;1.40;99.90
38090;DHT22;23904;52.322;10.232;2022-11-20T16:50:51;1.30;99.90
38090;DHT22;23904;52.322;10.232;2022-11-20T16:53:17;1.30;99.90
38090;DHT22;23904;52.322;10.232;2022-11-20T16:55:44;1.20;99.90
38090;DHT22;23904;52.322;10.232;2022-11-20T16:58:10;1.20;99.90
38090;DHT22;23904;52.322;10.232;2022-11-20T17:00:36;1.20;99.90
38090;DHT22;23904;52.322;10.232;2022-11-20T17:03:02;1.20;99.90
38090;DHT22;23904;52.322;10.232;2022-11-20T17:05:29;1.10;99.90
38090;DHT22;23904;52.322;10.232;2022-11-20T17:07:55;1.10;99.90
38090;DHT22;23904;52.322;10.232;2022-11-20T17:10:21;1.10;99.90
38090;DHT22;23904;52.322;10.232;2022-11-20T17:12:46;1.00;99.90